sensor_id;sensor_type;location;lat;lon;timestamp;pressure;altitude;pressure_sealevel;temperature;humidity
11912;BME280;6016;41.928;25.556;2024-03-08T00:01:00;99212.09;;;9.34;83.75
11912;BME280;6016;41.928;25.556;2024-03-08T00:03:27;99187.25;;;9.26;83.73
11912;BME280;6016;41.928;25.556;2024-03-08T00:05:54;99109.94;;;8.75;83.54
11912;BME280;6016;41.928;25.556;2024-03-08T00:08:23;99210.75;;;9.39;83.01
11912;BME280;6016;41.928;25.556;2024-03-08T00:10:50;99104.69;;;8.75;82.43
11912;BME280;6016;41.928;25.556;2024-03-08T00:13:17;99207.47;;;9.47;82.51
11912;BME280;6016;41.928;25.556;2024-03-08T00:15:44;99177.03;;;9.12;81.49
11912;BME280;6016;41.928;25.556;2024-03-08T00:18:11;99184.28;;;8.98;82.57
11912;BME280;6016;41.928;25.556;2024-03-08T00:20:38;99206.25;;;9.09;82.91
11912;BME280;6016;41.928;25.556;2024-03-08T00:23:05;99198.34;;;9.09;83.13
11912;BME280;6016;41.928;25.556;2024-03-08T00:25:34;99202.41;;;9.13;83.68
11912;BME280;6016;41.928;25.556;2024-03-08T00:28:01;99210.88;;;9.17;83.33
11912;BME280;6016;41.928;25.556;2024-03-08T00:30:30;99168.31;;;8.90;84.23
11912;BME280;6016;41.928;25.556;2024-03-08T00:32:57;99070.59;;;7.87;84.13
11912;BME280;6016;41.928;25.556;2024-03-08T00:35:25;99199.81;;;9.01;83.96
11912;BME280;6016;41.928;25.556;2024-03-08T00:37:52;99087.78;;;8.24;84.48
11912;BME280;6016;41.928;25.556;2024-03-08T00:40:21;99099.25;;;8.23;84.73
11912;BME280;6016;41.928;25.556;2024-03-08T00:42:50;99196.69;;;8.86;84.07
11912;BME280;6016;41.928;25.556;2024-03-08T00:45:18;99115.72;;;8.25;84.17
11912;BME280;6016;41.928;25.556;2024-03-08T00:47:45;99167.75;;;8.54;84.75
11912;BME280;6016;41.928;25.556;2024-03-08T00:50:12;99198.50;;;8.75;86.25
11912;BME280;6016;41.928;25.556;2024-03-08T00:52:39;99173.69;;;8.67;85.99
11912;BME280;6016;41.928;25.556;2024-03-08T00:55:07;99181.00;;;8.85;85.42
11912;BME280;6016;41.928;25.556;2024-03-08T00:57:36;99196.00;;;9.06;85.31
11912;BME280;6016;41.928;25.556;2024-03-08T01:00:06;99203.41;;;9.00;83.44
11912;BME280;6016;41.928;25.556;2024-03-08T01:02:37;99197.66;;;9.07;83.83
11912;BME280;6016;41.928;25.556;2024-03-08T01:05:05;99155.03;;;8.70;83.45
11912;BME280;6016;41.928;25.556;2024-03-08T01:07:33;98588.78;;;5.23;83.19
11912;BME280;6016;41.928;25.556;2024-03-08T01:10:00;99145.66;;;8.78;83.42
11912;BME280;6016;41.928;25.556;2024-03-08T01:12:27;99185.16;;;8.99;83.44
11912;BME280;6016;41.928;25.556;2024-03-08T01:14:54;99207.94;;;8.77;84.07
11912;BME280;6016;41.928;25.556;2024-03-08T01:17:24;99193.75;;;9.01;83.22
11912;BME280;6016;41.928;25.556;2024-03-08T01:19:52;99183.66;;;9.06;84.69
11912;BME280;6016;41.928;25.556;2024-03-08T01:22:19;99175.44;;;8.99;83.52
11912;BME280;6016;41.928;25.556;2024-03-08T01:24:48;99194.81;;;9.20;83.38
11912;BME280;6016;41.928;25.556;2024-03-08T01:27:15;99195.72;;;9.30;83.31
11912;BME280;6016;41.928;25.556;2024-03-08T01:29:42;99197.66;;;9.28;83.04
11912;BME280;6016;41.928;25.556;2024-03-08T01:32:09;99137.84;;;8.88;82.35
11912;BME280;6016;41.928;25.556;2024-03-08T01:34:37;99131.41;;;8.59;83.31
11912;BME280;6016;41.928;25.556;2024-03-08T01:37:04;99148.53;;;8.75;83.49
11912;BME280;6016;41.928;25.556;2024-03-08T01:39:32;99123.72;;;8.67;83.50
11912;BME280;6016;41.928;25.556;2024-03-08T01:41:59;99105.69;;;8.30;83.61
11912;BME280;6016;41.928;25.556;2024-03-08T01:44:26;99207.34;;;9.06;84.85
11912;BME280;6016;41.928;25.556;2024-03-08T01:46:53;99177.16;;;8.89;83.97
11912;BME280;6016;41.928;25.556;2024-03-08T01:49:21;99201.56;;;8.91;83.74
11912;BME280;6016;41.928;25.556;2024-03-08T01:51:50;99202.78;;;9.08;83.56
11912;BME280;6016;41.928;25.556;2024-03-08T01:54:19;99209.69;;;9.09;84.33
11912;BME280;6016;41.928;25.556;2024-03-08T01:56:47;99187.16;;;8.74;83.86
11912;BME280;6016;41.928;25.556;2024-03-08T01:59:14;99206.13;;;9.10;83.96
11912;BME280;6016;41.928;25.556;2024-03-08T02:01:42;99181.28;;;9.03;84.67
11912;BME280;6016;41.928;25.556;2024-03-08T02:04:09;99173.13;;;9.06;83.48
11912;BME280;6016;41.928;25.556;2024-03-08T02:06:36;99202.47;;;9.23;84.08
11912;BME280;6016;41.928;25.556;2024-03-08T02:09:05;99207.75;;;9.23;82.89
11912;BME280;6016;41.928;25.556;2024-03-08T02:11:33;99202.00;;;9.18;82.57
11912;BME280;6016;41.928;25.556;2024-03-08T02:14:01;99201.00;;;9.09;82.60
11912;BME280;6016;41.928;25.556;2024-03-08T02:16:28;99205.16;;;9.11;83.26
11912;BME280;6016;41.928;25.556;2024-03-08T02:18:55;99121.31;;;8.64;83.29
11912;BME280;6016;41.928;25.556;2024-03-08T02:21:24;99193.69;;;9.12;83.57
11912;BME280;6016;41.928;25.556;2024-03-08T02:23:52;99179.16;;;8.97;83.20
11912;BME280;6016;41.928;25.556;2024-03-08T02:26:19;99184.56;;;8.95;82.92
11912;BME280;6016;41.928;25.556;2024-03-08T02:28:46;99206.19;;;8.99;83.15
11912;BME280;6016;41.928;25.556;2024-03-08T02:31:13;99201.31;;;8.94;83.57
11912;BME280;6016;41.928;25.556;2024-03-08T02:33:40;99197.16;;;8.80;83.78
11912;BME280;6016;41.928;25.556;2024-03-08T02:36:07;99200.53;;;8.71;84.84
11912;BME280;6016;41.928;25.556;2024-03-08T02:38:35;99200.44;;;8.72;84.91
11912;BME280;6016;41.928;25.556;2024-03-08T02:41:03;99197.00;;;8.61;85.01
11912;BME280;6016;41.928;25.556;2024-03-08T02:43:30;98976.94;;;7.21;85.16
11912;BME280;6016;41.928;25.556;2024-03-08T02:45:57;99195.09;;;8.63;85.75
11912;BME280;6016;41.928;25.556;2024-03-08T02:48:25;99120.63;;;8.18;85.70
11912;BME280;6016;41.928;25.556;2024-03-08T02:50:52;99167.03;;;8.40;86.50
11912;BME280;6016;41.928;25.556;2024-03-08T02:53:19;99199.47;;;8.73;86.30
11912;BME280;6016;41.928;25.556;2024-03-08T02:55:47;99197.09;;;8.70;85.79
11912;BME280;6016;41.928;25.556;2024-03-08T02:58:14;99204.63;;;8.75;85.92
11912;BME280;6016;41.928;25.556;2024-03-08T03:00:42;99198.34;;;8.88;85.56
11912;BME280;6016;41.928;25.556;2024-03-08T03:03:09;99193.56;;;8.81;86.53
11912;BME280;6016;41.928;25.556;2024-03-08T03:05:36;99194.06;;;8.86;86.99
11912;BME280;6016;41.928;25.556;2024-03-08T03:08:04;99183.72;;;8.62;86.37
11912;BME280;6016;41.928;25.556;2024-03-08T03:10:34;99207.34;;;8.73;87.76
11912;BME280;6016;41.928;25.556;2024-03-08T03:13:03;99193.47;;;8.83;86.47
11912;BME280;6016;41.928;25.556;2024-03-08T03:15:30;99195.00;;;8.85;85.59
11912;BME280;6016;41.928;25.556;2024-03-08T03:17:57;99200.97;;;8.88;85.81
11912;BME280;6016;41.928;25.556;2024-03-08T03:20:24;99132.13;;;8.50;85.77
11912;BME280;6016;41.928;25.556;2024-03-08T03:22:52;99197.88;;;8.82;86.81
11912;BME280;6016;41.928;25.556;2024-03-08T03:25:19;99145.88;;;8.53;86.90
11912;BME280;6016;41.928;25.556;2024-03-08T03:27:51;99184.28;;;8.77;86.29
11912;BME280;6016;41.928;25.556;2024-03-08T03:30:23;99172.03;;;8.66;86.17
11912;BME280;6016;41.928;25.556;2024-03-08T03:32:52;99174.00;;;8.74;86.57
11912;BME280;6016;41.928;25.556;2024-03-08T03:35:20;99200.38;;;8.84;87.17
11912;BME280;6016;41.928;25.556;2024-03-08T03:37:48;99204.94;;;8.82;86.78
11912;BME280;6016;41.928;25.556;2024-03-08T03:40:27;99206.75;;;8.70;86.71
11912;BME280;6016;41.928;25.556;2024-03-08T03:42:54;98904.59;;;6.72;86.61
11912;BME280;6016;41.928;25.556;2024-03-08T03:45:23;99204.47;;;8.77;88.23
11912;BME280;6016;41.928;25.556;2024-03-08T03:47:50;99175.75;;;8.52;87.32
11912;BME280;6016;41.928;25.556;2024-03-08T03:50:17;99111.44;;;8.12;87.77
11912;BME280;6016;41.928;25.556;2024-03-08T03:52:44;99206.66;;;8.71;88.01
11912;BME280;6016;41.928;25.556;2024-03-08T03:55:12;99208.16;;;8.85;87.43
11912;BME280;6016;41.928;25.556;2024-03-08T03:57:39;99184.53;;;8.74;87.17
11912;BME280;6016;41.928;25.556;2024-03-08T04:00:07;99219.75;;;8.83;87.09
11912;BME280;6016;41.928;25.556;2024-03-08T04:02:37;99119.19;;;8.25;86.17
11912;BME280;6016;41.928;25.556;2024-03-08T04:05:05;99199.22;;;8.77;85.94
11912;BME280;6016;41.928;25.556;2024-03-08T04:07:33;99182.59;;;8.76;85.91
11912;BME280;6016;41.928;25.556;2024-03-08T04:10:00;99214.25;;;8.86;86.23
11912;BME280;6016;41.928;25.556;2024-03-08T04:12:27;99214.31;;;8.96;86.12
11912;BME280;6016;41.928;25.556;2024-03-08T04:14:56;99210.97;;;8.94;85.17
11912;BME280;6016;41.928;25.556;2024-03-08T04:17:23;99216.78;;;8.76;84.72
11912;BME280;6016;41.928;25.556;2024-03-08T04:19:52;99228.66;;;8.70;85.71
11912;BME280;6016;41.928;25.556;2024-03-08T04:22:19;99167.88;;;8.41;87.08
11912;BME280;6016;41.928;25.556;2024-03-08T04:24:46;99197.25;;;8.57;86.17
11912;BME280;6016;41.928;25.556;2024-03-08T04:27:14;99232.75;;;8.84;86.38
11912;BME280;6016;41.928;25.556;2024-03-08T04:29:41;99231.63;;;8.77;85.19
11912;BME280;6016;41.928;25.556;2024-03-08T04:32:08;99231.53;;;8.67;85.08
11912;BME280;6016;41.928;25.556;2024-03-08T04:34:35;99114.63;;;7.83;85.42
11912;BME280;6016;41.928;25.556;2024-03-08T04:37:04;99207.56;;;8.38;86.23
11912;BME280;6016;41.928;25.556;2024-03-08T04:39:31;99232.16;;;8.60;86.07
11912;BME280;6016;41.928;25.556;2024-03-08T04:42:02;99198.47;;;8.42;85.79
11912;BME280;6016;41.928;25.556;2024-03-08T04:44:30;99233.47;;;8.54;85.59
11912;BME280;6016;41.928;25.556;2024-03-08T04:46:59;99239.44;;;8.56;86.06
11912;BME280;6016;41.928;25.556;2024-03-08T04:49:25;99244.56;;;8.57;85.93
11912;BME280;6016;41.928;25.556;2024-03-08T04:51:53;99245.75;;;8.65;85.53
11912;BME280;6016;41.928;25.556;2024-03-08T04:54:22;99261.91;;;8.60;85.16
11912;BME280;6016;41.928;25.556;2024-03-08T04:56:49;99248.41;;;8.53;85.09
11912;BME280;6016;41.928;25.556;2024-03-08T04:59:16;99224.13;;;8.38;85.14
11912;BME280;6016;41.928;25.556;2024-03-08T05:01:43;99254.84;;;8.61;85.44
11912;BME280;6016;41.928;25.556;2024-03-08T05:04:10;99157.34;;;7.85;85.33
11912;BME280;6016;41.928;25.556;2024-03-08T05:06:37;99262.84;;;8.36;85.39
11912;BME280;6016;41.928;25.556;2024-03-08T05:09:04;99270.50;;;8.39;85.85
11912;BME280;6016;41.928;25.556;2024-03-08T05:11:40;99263.34;;;8.53;85.93
11912;BME280;6016;41.928;25.556;2024-03-08T05:14:08;99267.28;;;8.36;85.13
11912;BME280;6016;41.928;25.556;2024-03-08T05:16:35;99265.13;;;8.52;84.44
11912;BME280;6016;41.928;25.556;2024-03-08T05:19:02;99275.75;;;8.62;84.77
11912;BME280;6016;41.928;25.556;2024-03-08T05:21:29;99227.03;;;8.24;84.69
11912;BME280;6016;41.928;25.556;2024-03-08T05:23:56;99282.69;;;8.52;83.64
11912;BME280;6016;41.928;25.556;2024-03-08T05:26:23;99284.94;;;8.68;83.90
11912;BME280;6016;41.928;25.556;2024-03-08T05:28:51;99222.66;;;8.01;83.32
11912;BME280;6016;41.928;25.556;2024-03-08T05:31:20;99291.53;;;8.51;84.21
11912;BME280;6016;41.928;25.556;2024-03-08T05:33:48;99293.69;;;8.57;83.92
11912;BME280;6016;41.928;25.556;2024-03-08T05:36:15;99238.88;;;8.18;83.63
11912;BME280;6016;41.928;25.556;2024-03-08T05:38:43;99296.06;;;8.60;84.12
11912;BME280;6016;41.928;25.556;2024-03-08T05:41:10;99302.28;;;8.48;83.68
11912;BME280;6016;41.928;25.556;2024-03-08T05:43:37;99300.13;;;8.53;83.83
11912;BME280;6016;41.928;25.556;2024-03-08T05:46:06;99085.66;;;7.28;83.23
11912;BME280;6016;41.928;25.556;2024-03-08T05:48:33;99298.69;;;8.71;84.15
11912;BME280;6016;41.928;25.556;2024-03-08T05:51:00;99281.88;;;8.51;82.64
11912;BME280;6016;41.928;25.556;2024-03-08T05:53:28;99259.28;;;8.37;82.90
11912;BME280;6016;41.928;25.556;2024-03-08T05:55:57;99311.84;;;8.60;82.58
11912;BME280;6016;41.928;25.556;2024-03-08T05:58:25;99314.72;;;8.68;82.89
11912;BME280;6016;41.928;25.556;2024-03-08T06:00:52;99338.84;;;8.73;82.28
11912;BME280;6016;41.928;25.556;2024-03-08T06:03:20;99327.25;;;8.76;82.54
11912;BME280;6016;41.928;25.556;2024-03-08T06:05:48;99287.84;;;8.53;82.22
11912;BME280;6016;41.928;25.556;2024-03-08T06:08:15;99329.28;;;8.72;81.78
11912;BME280;6016;41.928;25.556;2024-03-08T06:10:42;99332.63;;;8.63;81.55
11912;BME280;6016;41.928;25.556;2024-03-08T06:13:09;99266.34;;;8.02;82.04
11912;BME280;6016;41.928;25.556;2024-03-08T06:15:37;99287.81;;;8.30;81.40
11912;BME280;6016;41.928;25.556;2024-03-08T06:18:05;99338.84;;;8.62;82.18
11912;BME280;6016;41.928;25.556;2024-03-08T06:20:37;99337.44;;;8.58;82.26
11912;BME280;6016;41.928;25.556;2024-03-08T06:23:04;99337.16;;;8.50;84.21
11912;BME280;6016;41.928;25.556;2024-03-08T06:25:31;99342.66;;;8.47;83.37
11912;BME280;6016;41.928;25.556;2024-03-08T06:27:59;99301.69;;;8.10;82.77
11912;BME280;6016;41.928;25.556;2024-03-08T06:30:26;99348.38;;;8.40;82.35
11912;BME280;6016;41.928;25.556;2024-03-08T06:32:53;99360.25;;;8.57;82.75
11912;BME280;6016;41.928;25.556;2024-03-08T06:35:20;99358.81;;;8.65;82.59
11912;BME280;6016;41.928;25.556;2024-03-08T06:37:48;99260.72;;;7.84;83.04
11912;BME280;6016;41.928;25.556;2024-03-08T06:40:15;99374.50;;;8.66;83.45
11912;BME280;6016;41.928;25.556;2024-03-08T06:42:42;99209.03;;;7.73;82.57
11912;BME280;6016;41.928;25.556;2024-03-08T06:45:09;99339.00;;;8.61;80.98
11912;BME280;6016;41.928;25.556;2024-03-08T06:47:38;99287.22;;;8.27;80.57
11912;BME280;6016;41.928;25.556;2024-03-08T06:50:07;99377.81;;;8.91;82.16
11912;BME280;6016;41.928;25.556;2024-03-08T06:52:34;99384.34;;;8.97;80.64
11912;BME280;6016;41.928;25.556;2024-03-08T06:55:04;99284.13;;;8.44;80.48
11912;BME280;6016;41.928;25.556;2024-03-08T06:57:31;99380.16;;;9.06;81.39
11912;BME280;6016;41.928;25.556;2024-03-08T06:59:58;99384.69;;;9.04;80.18
11912;BME280;6016;41.928;25.556;2024-03-08T07:02:25;99345.16;;;8.82;80.16
11912;BME280;6016;41.928;25.556;2024-03-08T07:04:52;99391.31;;;8.86;79.96
11912;BME280;6016;41.928;25.556;2024-03-08T07:07:19;99391.06;;;8.90;81.15
11912;BME280;6016;41.928;25.556;2024-03-08T07:09:47;99333.59;;;8.62;79.71
11912;BME280;6016;41.928;25.556;2024-03-08T07:12:16;99339.34;;;8.67;79.65
11912;BME280;6016;41.928;25.556;2024-03-08T07:14:43;99392.47;;;9.05;79.44
11912;BME280;6016;41.928;25.556;2024-03-08T07:17:12;99399.91;;;9.11;80.81
11912;BME280;6016;41.928;25.556;2024-03-08T07:19:39;99395.78;;;9.19;79.70
11912;BME280;6016;41.928;25.556;2024-03-08T07:22:05;99393.66;;;9.24;79.75
11912;BME280;6016;41.928;25.556;2024-03-08T07:24:35;99321.75;;;8.79;78.93
11912;BME280;6016;41.928;25.556;2024-03-08T07:27:22;99349.31;;;8.96;79.18
11912;BME280;6016;41.928;25.556;2024-03-08T07:29:49;99390.97;;;9.35;79.80
11912;BME280;6016;41.928;25.556;2024-03-08T07:32:16;99394.66;;;9.44;79.71
11912;BME280;6016;41.928;25.556;2024-03-08T07:34:47;99348.94;;;9.12;78.43
11912;BME280;6016;41.928;25.556;2024-03-08T07:37:16;99394.19;;;9.39;77.62
11912;BME280;6016;41.928;25.556;2024-03-08T07:39:43;99212.34;;;8.21;77.23
11912;BME280;6016;41.928;25.556;2024-03-08T07:42:10;99399.25;;;9.31;77.20
11912;BME280;6016;41.928;25.556;2024-03-08T07:44:39;99405.59;;;9.28;76.65
11912;BME280;6016;41.928;25.556;2024-03-08T07:47:06;99395.06;;;9.28;77.11
11912;BME280;6016;41.928;25.556;2024-03-08T07:49:35;99394.47;;;9.24;77.36
11912;BME280;6016;41.928;25.556;2024-03-08T07:52:03;99231.59;;;8.10;78.21
11912;BME280;6016;41.928;25.556;2024-03-08T07:54:33;99397.31;;;9.33;78.29
11912;BME280;6016;41.928;25.556;2024-03-08T07:57:00;99319.56;;;8.84;79.12
11912;BME280;6016;41.928;25.556;2024-03-08T07:59:28;99373.56;;;9.23;78.57
11912;BME280;6016;41.928;25.556;2024-03-08T08:01:57;99389.88;;;9.38;79.31
11912;BME280;6016;41.928;25.556;2024-03-08T08:04:25;99405.56;;;9.39;77.66
11912;BME280;6016;41.928;25.556;2024-03-08T08:06:52;99331.28;;;8.92;77.36
11912;BME280;6016;41.928;25.556;2024-03-08T08:09:20;99414.06;;;9.43;77.17
11912;BME280;6016;41.928;25.556;2024-03-08T08:11:54;99396.50;;;9.21;76.90
11912;BME280;6016;41.928;25.556;2024-03-08T08:14:21;99405.22;;;9.33;77.84
11912;BME280;6016;41.928;25.556;2024-03-08T08:16:48;99409.91;;;9.18;78.30
11912;BME280;6016;41.928;25.556;2024-03-08T08:19:19;99423.75;;;9.31;77.60
11912;BME280;6016;41.928;25.556;2024-03-08T08:21:46;99414.44;;;9.27;79.02
11912;BME280;6016;41.928;25.556;2024-03-08T08:24:13;99410.75;;;9.29;79.78
11912;BME280;6016;41.928;25.556;2024-03-08T08:26:40;99404.97;;;9.36;78.74
11912;BME280;6016;41.928;25.556;2024-03-08T08:29:07;99421.00;;;9.44;78.37
11912;BME280;6016;41.928;25.556;2024-03-08T08:31:34;99356.97;;;8.99;78.60
11912;BME280;6016;41.928;25.556;2024-03-08T08:34:01;99429.63;;;9.35;78.15
11912;BME280;6016;41.928;25.556;2024-03-08T08:36:30;99431.56;;;9.33;78.48
11912;BME280;6016;41.928;25.556;2024-03-08T08:38:57;99393.44;;;9.04;78.37
11912;BME280;6016;41.928;25.556;2024-03-08T08:41:24;99430.69;;;9.32;79.79
11912;BME280;6016;41.928;25.556;2024-03-08T08:43:52;99440.75;;;9.38;79.11
11912;BME280;6016;41.928;25.556;2024-03-08T08:46:19;99398.22;;;9.10;79.45
11912;BME280;6016;41.928;25.556;2024-03-08T08:48:47;99425.56;;;9.42;79.13
11912;BME280;6016;41.928;25.556;2024-03-08T08:51:14;99439.25;;;9.57;78.11
11912;BME280;6016;41.928;25.556;2024-03-08T08:53:43;99340.03;;;8.81;78.35
11912;BME280;6016;41.928;25.556;2024-03-08T08:56:11;99422.19;;;9.28;78.65
11912;BME280;6016;41.928;25.556;2024-03-08T08:58:39;99402.63;;;9.10;78.77
11912;BME280;6016;41.928;25.556;2024-03-08T09:01:06;99444.78;;;9.42;78.44
11912;BME280;6016;41.928;25.556;2024-03-08T09:03:35;99445.75;;;9.41;78.40
11912;BME280;6016;41.928;25.556;2024-03-08T09:06:03;99351.88;;;8.75;79.77
11912;BME280;6016;41.928;25.556;2024-03-08T09:08:30;99446.13;;;9.37;80.33
11912;BME280;6016;41.928;25.556;2024-03-08T09:10:58;99450.44;;;9.38;79.41
11912;BME280;6016;41.928;25.556;2024-03-08T09:13:26;99411.34;;;9.22;79.60
11912;BME280;6016;41.928;25.556;2024-03-08T09:15:53;99442.41;;;9.51;80.00
11912;BME280;6016;41.928;25.556;2024-03-08T09:18:20;99443.44;;;9.60;80.27
11912;BME280;6016;41.928;25.556;2024-03-08T09:20:47;99454.44;;;9.53;79.72
11912;BME280;6016;41.928;25.556;2024-03-08T09:23:14;99439.13;;;9.59;80.45
11912;BME280;6016;41.928;25.556;2024-03-08T09:25:42;99446.03;;;9.71;80.26
11912;BME280;6016;41.928;25.556;2024-03-08T09:28:10;99445.66;;;9.76;79.30
11912;BME280;6016;41.928;25.556;2024-03-08T09:30:38;99323.00;;;9.08;80.21
11912;BME280;6016;41.928;25.556;2024-03-08T09:33:05;99431.72;;;9.85;79.76
11912;BME280;6016;41.928;25.556;2024-03-08T09:35:33;99455.69;;;10.03;79.25
11912;BME280;6016;41.928;25.556;2024-03-08T09:38:00;99368.63;;;9.29;78.83
11912;BME280;6016;41.928;25.556;2024-03-08T09:40:27;99449.94;;;9.88;79.47
11912;BME280;6016;41.928;25.556;2024-03-08T09:42:54;99449.28;;;9.96;78.18
11912;BME280;6016;41.928;25.556;2024-03-08T09:45:23;99457.44;;;9.93;78.08
11912;BME280;6016;41.928;25.556;2024-03-08T09:47:51;99451.84;;;9.86;78.70
11912;BME280;6016;41.928;25.556;2024-03-08T09:50:19;99448.97;;;9.89;78.15
11912;BME280;6016;41.928;25.556;2024-03-08T09:52:48;99451.03;;;9.74;78.34
11912;BME280;6016;41.928;25.556;2024-03-08T09:55:16;99445.94;;;9.94;80.54
11912;BME280;6016;41.928;25.556;2024-03-08T09:57:48;99365.50;;;9.57;80.21
11912;BME280;6016;41.928;25.556;2024-03-08T10:00:30;99445.09;;;10.14;78.98
11912;BME280;6016;41.928;25.556;2024-03-08T10:03:01;99449.34;;;10.27;79.37
11912;BME280;6016;41.928;25.556;2024-03-08T10:05:28;99295.25;;;9.04;78.24
11912;BME280;6016;41.928;25.556;2024-03-08T10:07:55;99437.72;;;9.87;79.06
11912;BME280;6016;41.928;25.556;2024-03-08T10:10:22;99435.09;;;10.08;79.85
11912;BME280;6016;41.928;25.556;2024-03-08T10:12:49;99440.31;;;10.20;79.72
11912;BME280;6016;41.928;25.556;2024-03-08T10:15:16;99436.44;;;10.24;78.88
11912;BME280;6016;41.928;25.556;2024-03-08T10:17:45;99436.44;;;10.24;78.34
11912;BME280;6016;41.928;25.556;2024-03-08T10:20:15;99023.88;;;7.46;77.13
11912;BME280;6016;41.928;25.556;2024-03-08T10:22:42;99431.09;;;10.14;77.97
11912;BME280;6016;41.928;25.556;2024-03-08T10:25:10;99434.44;;;10.16;78.24
11912;BME280;6016;41.928;25.556;2024-03-08T10:27:38;99440.47;;;10.28;77.29
11912;BME280;6016;41.928;25.556;2024-03-08T10:30:10;99439.38;;;10.31;76.91
11912;BME280;6016;41.928;25.556;2024-03-08T10:32:38;99439.28;;;10.32;77.17
11912;BME280;6016;41.928;25.556;2024-03-08T10:35:08;99406.53;;;10.13;77.21
11912;BME280;6016;41.928;25.556;2024-03-08T10:37:43;99434.00;;;10.53;78.38
11912;BME280;6016;41.928;25.556;2024-03-08T10:40:16;99417.19;;;10.54;77.35
11912;BME280;6016;41.928;25.556;2024-03-08T10:42:51;99437.47;;;10.54;76.14
11912;BME280;6016;41.928;25.556;2024-03-08T10:45:31;99439.00;;;10.57;75.54
11912;BME280;6016;41.928;25.556;2024-03-08T10:48:09;99427.84;;;10.43;76.44
11912;BME280;6016;41.928;25.556;2024-03-08T10:50:39;99437.19;;;10.14;76.06
11912;BME280;6016;41.928;25.556;2024-03-08T10:53:07;99346.13;;;9.79;76.58
11912;BME280;6016;41.928;25.556;2024-03-08T10:55:40;99429.53;;;10.33;75.55
11912;BME280;6016;41.928;25.556;2024-03-08T10:58:07;99434.28;;;10.50;76.36
11912;BME280;6016;41.928;25.556;2024-03-08T11:00:34;99427.53;;;10.67;75.25
11912;BME280;6016;41.928;25.556;2024-03-08T11:03:02;99432.00;;;10.77;74.89
11912;BME280;6016;41.928;25.556;2024-03-08T11:05:37;99421.47;;;10.87;74.20
11912;BME280;6016;41.928;25.556;2024-03-08T11:08:16;99419.28;;;10.92;73.36
11912;BME280;6016;41.928;25.556;2024-03-08T11:10:48;99333.88;;;10.42;73.97
11912;BME280;6016;41.928;25.556;2024-03-08T11:13:35;99381.16;;;10.65;74.75
11912;BME280;6016;41.928;25.556;2024-03-08T11:16:07;99407.44;;;10.76;74.41
11912;BME280;6016;41.928;25.556;2024-03-08T11:18:35;99414.22;;;10.69;75.08
11912;BME280;6016;41.928;25.556;2024-03-08T11:21:03;99420.56;;;10.66;73.88
11912;BME280;6016;41.928;25.556;2024-03-08T11:23:36;99405.16;;;10.62;74.37
11912;BME280;6016;41.928;25.556;2024-03-08T11:26:17;99181.81;;;9.18;74.17
11912;BME280;6016;41.928;25.556;2024-03-08T11:28:44;99284.31;;;9.83;75.05
11912;BME280;6016;41.928;25.556;2024-03-08T11:31:25;99323.78;;;10.26;75.22
11912;BME280;6016;41.928;25.556;2024-03-08T11:33:53;99414.97;;;10.81;74.61
11912;BME280;6016;41.928;25.556;2024-03-08T11:36:23;99420.50;;;10.78;73.02
11912;BME280;6016;41.928;25.556;2024-03-08T11:38:52;99411.28;;;10.72;74.23
11912;BME280;6016;41.928;25.556;2024-03-08T11:41:22;99363.34;;;10.36;74.10
11912;BME280;6016;41.928;25.556;2024-03-08T11:44:04;99411.44;;;10.71;74.38
11912;BME280;6016;41.928;25.556;2024-03-08T11:46:37;99391.09;;;10.30;73.41
11912;BME280;6016;41.928;25.556;2024-03-08T11:49:07;99416.44;;;10.74;74.65
11912;BME280;6016;41.928;25.556;2024-03-08T11:51:34;99421.06;;;10.81;72.68
11912;BME280;6016;41.928;25.556;2024-03-08T11:54:03;99369.69;;;10.45;72.65
11912;BME280;6016;41.928;25.556;2024-03-08T11:56:31;99419.41;;;10.80;73.32
11912;BME280;6016;41.928;25.556;2024-03-08T11:58:59;99430.63;;;10.73;73.70
11912;BME280;6016;41.928;25.556;2024-03-08T12:01:27;99408.63;;;10.93;73.69
11912;BME280;6016;41.928;25.556;2024-03-08T12:03:54;99369.34;;;10.69;72.90
11912;BME280;6016;41.928;25.556;2024-03-08T12:06:24;99408.63;;;11.03;72.40
11912;BME280;6016;41.928;25.556;2024-03-08T12:08:52;99349.78;;;10.40;70.99
11912;BME280;6016;41.928;25.556;2024-03-08T12:11:20;99415.97;;;11.00;72.04
11912;BME280;6016;41.928;25.556;2024-03-08T12:13:49;99390.50;;;10.79;73.45
11912;BME280;6016;41.928;25.556;2024-03-08T12:16:19;99272.78;;;10.06;72.44
11912;BME280;6016;41.928;25.556;2024-03-08T12:18:47;99411.69;;;10.98;71.19
11912;BME280;6016;41.928;25.556;2024-03-08T12:21:15;99414.91;;;11.12;71.21
11912;BME280;6016;41.928;25.556;2024-03-08T12:23:45;99421.38;;;10.98;71.59
11912;BME280;6016;41.928;25.556;2024-03-08T12:26:17;99416.88;;;10.79;72.32
11912;BME280;6016;41.928;25.556;2024-03-08T12:28:46;99408.44;;;10.85;73.85
11912;BME280;6016;41.928;25.556;2024-03-08T12:31:14;99347.75;;;10.44;72.40
11912;BME280;6016;41.928;25.556;2024-03-08T12:33:50;99416.94;;;10.89;71.61
11912;BME280;6016;41.928;25.556;2024-03-08T12:36:19;99385.50;;;10.76;72.49
11912;BME280;6016;41.928;25.556;2024-03-08T12:38:47;99363.50;;;10.65;73.38
11912;BME280;6016;41.928;25.556;2024-03-08T12:41:15;99395.53;;;10.92;73.28
11912;BME280;6016;41.928;25.556;2024-03-08T12:43:43;98835.31;;;7.42;73.22
11912;BME280;6016;41.928;25.556;2024-03-08T12:46:16;99375.59;;;10.68;72.14
11912;BME280;6016;41.928;25.556;2024-03-08T12:48:44;99404.84;;;10.96;72.55
11912;BME280;6016;41.928;25.556;2024-03-08T12:51:12;99410.44;;;11.03;74.37
11912;BME280;6016;41.928;25.556;2024-03-08T12:53:41;99407.50;;;10.96;71.76
11912;BME280;6016;41.928;25.556;2024-03-08T12:56:10;99407.50;;;10.96;72.52
11912;BME280;6016;41.928;25.556;2024-03-08T12:58:37;99406.91;;;10.92;72.26
11912;BME280;6016;41.928;25.556;2024-03-08T13:01:06;99407.19;;;10.89;71.46
11912;BME280;6016;41.928;25.556;2024-03-08T13:03:35;99392.13;;;10.70;72.84
11912;BME280;6016;41.928;25.556;2024-03-08T13:06:02;99416.47;;;10.83;72.85
11912;BME280;6016;41.928;25.556;2024-03-08T13:08:31;99404.13;;;10.84;72.38
11912;BME280;6016;41.928;25.556;2024-03-08T13:11:01;99175.91;;;9.26;72.81
11912;BME280;6016;41.928;25.556;2024-03-08T13:13:28;99373.09;;;10.66;73.63